Landisville, NJ (08326)

10:46 AM EST en Febrero 25, 2018 (GMT -0500)
Landisville | | Change Station
Aviso en curso: Dense Fog Advisory

Alt 144 ft 39.54 °N, 74.94 °W | Updated 16 seconds ago

Lluvia
Lluvia
48.7 ° F
Sensación térmica 49 ° F
N
0.0
Viento Variable Viento desde NNE
Gusts 0.0 mph

Hoy
Alta -- | Baja -- ° F
--% Posibilidad de precipitaciones
Ayer
Alta -- | Baja -- ° F
Precip. -- pul
Presión 29.99 pul
Visibilidad 2.0 Millas
Nubes Nublado 200 ft
Vientos helados 49 ° F
Punto de rocío 47 ° F
Humedad 94%
Precipitaciones 0.56 pul
Espesor de la nieve No disponible.
6:38 AM 5:47 PM
Gibosa creciente, 75% visible
SPECI KMIV 251526Z AUTO 31004KT 2SM -RA BR OVC002 09/08 A2999 RMK AO2 PRESRR P0000 T00890078
Presión 29.99 pul
Visibilidad 2.0 Millas
Nubes Nublado 200 ft
Vientos helados 49 ° F
Punto de rocío 47 ° F
Humedad 94%
Precipitaciones 0.56 pul
Espesor de la nieve No disponible.
6:38 AM 5:47 PM
Gibosa creciente, 75% visible
SPECI KMIV 251526Z AUTO 31004KT 2SM -RA BR OVC002 09/08 A2999 RMK AO2 PRESRR P0000 T00890078

Get Your Daily Forecast Email!

Thanks for signing up!

Be on the lookout for a verification email in your inbox.

You'll start receiving severe weather alerts in your inbox..

×

10-Day Weather Forecast

Almanac

Astronomía

Feb. 25, 2018 Salida Puesta
Hora real
Crepúsculo civil
Crepúsculo náutico
Crepúsculo astronómico
Luna
Horas de luz
Horas de luz
Tomorrow will be .
, % of the Moon is Illuminated

Extremos de hoy

Máximos del estado Bajos del estado

Community

WunderPhotos

Category 6

Welcome to Category 6. This is the collective home for Weather Underground's featured writeups by Dr. Jeff Masters (right), Bob Henson (left), Chris Burt, and other regular contributors.

Nearby

Calidad del aire

  Calidad del aire Índice AQ Contaminante
Not available.

Grosos de nieve

Estación Profundido Altura

Actividad de terremotos

Ciudad Distance Mag. Tiempo y dato
Magnitud mínima muestra es 2,5.

Temperaturas de aguas costeras

Lugar Temperatura

Stations

Estaciones meteorológicas cercanas

Ubicación de la estación Temp. Vientos helados Punto de rocío Humedad Viento Precip. Alt Actualizado Tipo
                   

Watches & Warnings

Dense Fog Advisory
Issued: 8:03 AM EST Feb. 25, 2018 – National Weather Service

... Dense fog advisory in effect until noon EST today...

The National Weather Service in Mount Holly has issued a dense
fog advisory, which is in effect until noon EST today.

* Location... Queen Annes County in Maryland, Kent County in
Delaware, Cumberland, Atlantic, and Cape May counties in
New Jersey.

* Visibilities... one quarter mile or less at times.

* Timing... through 12 PM Sunday.

* Impacts... limited visibilities will make travel difficult.

Precautionary/preparedness actions...

A dense fog advisory means visibilities will frequently be
reduced to less than one quarter mile. If driving... slow down...
use your headlights... and leave plenty of distance ahead of you.